Time;durP1;ratioP1;P1;durP2;ratioP2;P2;SDS_P1;SDS_P2;PMS_P1;PMS_P2;Temp;Humidity;BMP_temperature;BMP_pressure;BME280_temperature;BME280_humidity;BME280_pressure;Samples;Min_cycle;Max_cycle;Signal;HPM_P1;HPM_P2
2022/11/01 00:00:53;;;;;;;6.78;5.55;;;;;;;;;;5189943;28;20021;-66
2022/11/01 00:03:24;;;;;;;6.90;4.55;;;;;;;;;;5189508;28;20017;-67
2022/11/01 00:05:54;;;;;;;7.60;6.93;;;;;;;;;;5207490;28;20032;-66
2022/11/01 00:08:24;;;;;;;5.20;4.80;;;;;;;;;;5188478;28;20060;-66
2022/11/01 00:11:05;;;;;;;9.55;6.57;;;;;;;;;;5189554;28;20518;-66
2022/11/01 00:13:35;;;;;;;6.85;6.28;;;;;;;;;;5207016;28;20476;-68
2022/11/01 00:16:06;;;;;;;9.18;4.22;;;;;;;;;;5189880;28;20026;-68
2022/11/01 00:18:36;;;;;;;5.65;4.25;;;;;;;;;;5189588;28;20029;-67
2022/11/01 00:21:06;;;;;;;5.78;4.85;;;;;;;;;;5188614;28;20117;-67
2022/11/01 00:23:37;;;;;;;6.10;4.55;;;;;;;;;;5189185;28;20053;-66
2022/11/01 00:26:08;;;;;;;5.78;5.32;;;;;;;;;;5189530;28;20485;-67
2022/11/01 00:28:39;;;;;;;11.23;4.97;;;;;;;;;;5207013;28;20029;-67
2022/11/01 00:31:10;;;;;;;6.28;4.72;;;;;;;;;;5189262;28;20144;-66
2022/11/01 00:33:40;;;;;;;9.25;6.05;;;;;;;;;;5188901;28;20240;-66
2022/11/01 00:36:11;;;;;;;8.23;6.25;;;;;;;;;;5189193;28;20465;-66
2022/11/01 00:38:41;;;;;;;5.20;4.70;;;;;;;;;;5189216;28;20032;-67
2022/11/01 00:41:11;;;;;;;6.68;5.15;;;;;;;;;;5188968;28;20485;-67
2022/11/01 00:43:42;;;;;;;5.80;3.97;;;;;;;;;;5188720;28;20461;-66
2022/11/01 00:46:12;;;;;;;4.88;4.40;;;;;;;;;;5188954;28;20021;-66
2022/11/01 00:48:42;;;;;;;5.72;5.25;;;;;;;;;;5188967;28;20029;-66
2022/11/01 00:51:12;;;;;;;7.13;6.43;;;;;;;;;;5188654;28;20026;-65
2022/11/01 00:53:43;;;;;;;8.35;6.55;;;;;;;;;;5188199;28;20115;-66
2022/11/01 00:56:13;;;;;;;5.90;5.45;;;;;;;;;;5188692;28;20032;-65
2022/11/01 00:58:44;;;;;;;9.40;6.03;;;;;;;;;;5172796;28;20049;-65
2022/11/01 01:01:15;;;;;;;6.57;5.80;;;;;;;;;;5188396;28;20381;-65
2022/11/01 01:03:45;;;;;;;5.97;5.57;;;;;;;;;;5188441;28;20435;-66
2022/11/01 01:06:15;;;;;;;6.53;6.05;;;;;;;;;;5187357;28;20044;-66
2022/11/01 01:08:46;;;;;;;7.40;5.88;;;;;;;;;;5188616;28;20025;-66
2022/11/01 01:11:16;;;;;;;10.20;5.90;;;;;;;;;;5205515;28;20104;-67
2022/11/01 01:13:46;;;;;;;6.25;5.80;;;;;;;;;;5187417;28;20434;-66
2022/11/01 01:16:16;;;;;;;10.98;5.00;;;;;;;;;;5188716;28;20060;-66
2022/11/01 01:18:47;;;;;;;6.75;5.97;;;;;;;;;;5209802;22;20037;-64
2022/11/01 01:21:18;;;;;;;5.40;4.80;;;;;;;;;;5203919;28;20075;-69
2022/11/01 01:23:50;;;;;;;9.60;5.20;;;;;;;;;;5212586;28;20389;-66
2022/11/01 01:26:20;;;;;;;7.63;4.90;;;;;;;;;;5212532;28;20021;-66
2022/11/01 01:28:54;;;;;;;6.38;5.20;;;;;;;;;;5213011;28;20138;-66
2022/11/01 01:31:24;;;;;;;6.60;5.72;;;;;;;;;;5213539;28;20021;-65
2022/11/01 01:33:56;;;;;;;7.75;6.40;;;;;;;;;;5213476;28;20036;-64
2022/11/01 01:36:26;;;;;;;6.43;5.70;;;;;;;;;;5213556;28;20031;-64
2022/11/01 01:38:56;;;;;;;9.43;4.90;;;;;;;;;;5213436;28;20052;-65
2022/11/01 01:44:34;;;;;;;9.73;5.17;;;;;;;;;;5231607;28;20102;-67
2022/11/01 01:47:04;;;;;;;5.47;4.47;;;;;;;;;;5212224;28;20276;-66
2022/11/01 01:49:35;;;;;;;6.75;6.15;;;;;;;;;;5226914;28;20286;-65
2022/11/01 01:52:05;;;;;;;8.15;6.07;;;;;;;;;;5213587;28;20120;-64
2022/11/01 01:54:36;;;;;;;6.07;5.15;;;;;;;;;;5211868;28;20028;-65
2022/11/01 01:57:07;;;;;;;5.57;5.03;;;;;;;;;;5211546;28;20025;-65
2022/11/01 01:59:37;;;;;;;5.22;4.80;;;;;;;;;;5210844;28;20477;-66
2022/11/01 02:02:08;;;;;;;8.20;5.82;;;;;;;;;;5210931;28;20025;-66
2022/11/01 02:04:43;;;;;;;5.50;4.70;;;;;;;;;;5210429;28;20017;-65
2022/11/01 02:07:14;;;;;;;4.78;4.38;;;;;;;;;;5212167;28;20021;-66
2022/11/01 02:09:44;;;;;;;5.97;3.45;;;;;;;;;;5211686;28;20025;-64
2022/11/01 02:12:14;;;;;;;4.80;4.40;;;;;;;;;;5229709;28;20043;-64
2022/11/01 02:14:45;;;;;;;7.30;3.65;;;;;;;;;;5211165;28;20040;-65
2022/11/01 02:17:26;;;;;;;8.52;4.22;;;;;;;;;;5212482;28;20029;-66
2022/11/01 02:20:03;;;;;;;5.10;4.00;;;;;;;;;;5211826;28;20021;-64
2022/11/01 02:22:52;;;;;;;5.55;4.80;;;;;;;;;;5211801;28;20021;-64
2022/11/01 02:25:34;;;;;;;5.07;3.55;;;;;;;;;;5209570;28;20021;-66
2022/11/01 02:28:08;;;;;;;7.43;4.15;;;;;;;;;;5212096;28;20045;-66
2022/11/01 02:30:43;;;;;;;4.07;3.80;;;;;;;;;;5229978;28;20385;-66
2022/11/01 02:33:25;;;;;;;4.25;4.00;;;;;;;;;;5215899;28;20021;-64
2022/11/01 02:36:03;;;;;;;6.80;4.13;;;;;;;;;;5215756;28;20028;-66
2022/11/01 02:38:40;;;;;;;10.27;3.75;;;;;;;;;;5216038;28;20021;-65
2022/11/01 02:41:20;;;;;;;2.95;2.80;;;;;;;;;;5216039;28;20017;-65
2022/11/01 02:43:56;;;;;;;3.25;3.00;;;;;;;;;;5211410;28;20478;-66
2022/11/01 02:49:19;;;;;;;2.90;2.75;;;;;;;;;;5213549;28;20044;-66
2022/11/01 02:51:50;;;;;;;3.72;3.38;;;;;;;;;;5195461;28;20083;-67
2022/11/01 02:54:22;;;;;;;4.95;3.40;;;;;;;;;;5195269;28;20022;-66
2022/11/01 02:56:52;;;;;;;3.08;2.78;;;;;;;;;;5195210;28;20025;-66
2022/11/01 02:59:23;;;;;;;2.88;2.67;;;;;;;;;;5194702;28;20020;-65
2022/11/01 03:02:04;;;;;;;3.47;3.10;;;;;;;;;;5194221;28;20025;-66
2022/11/01 03:04:34;;;;;;;2.03;1.92;;;;;;;;;;5195336;28;20021;-66
2022/11/01 03:07:07;;;;;;;5.88;2.80;;;;;;;;;;5212807;28;20031;-66
2022/11/01 03:09:38;;;;;;;3.30;3.17;;;;;;;;;;5194586;28;20056;-65
2022/11/01 03:12:15;;;;;;;2.63;2.53;;;;;;;;;;5194726;28;20025;-66
2022/11/01 03:14:53;;;;;;;5.95;2.95;;;;;;;;;;5196289;28;20022;-66
2022/11/01 03:17:32;;;;;;;2.40;2.30;;;;;;;;;;5196481;28;20037;-67
2022/11/01 03:20:14;;;;;;;2.85;2.65;;;;;;;;;;5197960;28;20025;-64
2022/11/01 03:22:53;;;;;;;4.78;2.03;;;;;;;;;;5197294;28;20095;-66
2022/11/01 03:25:39;;;;;;;2.65;2.55;;;;;;;;;;5195455;28;20017;-66
2022/11/01 03:28:12;;;;;;;2.92;2.15;;;;;;;;;;5197810;28;20021;-66
2022/11/01 03:31:02;;;;;;;1.95;1.90;;;;;;;;;;5196903;28;20101;-66
2022/11/01 03:33:33;;;;;;;2.10;2.00;;;;;;;;;;5197081;28;20021;-66
2022/11/01 03:36:07;;;;;;;2.17;2.08;;;;;;;;;;5197186;28;20547;-66
2022/11/01 03:38:39;;;;;;;3.38;2.53;;;;;;;;;;5196693;28;20033;-65
2022/11/01 03:41:15;;;;;;;4.85;2.40;;;;;;;;;;5196710;28;20040;-65
2022/11/01 03:43:46;;;;;;;2.55;2.45;;;;;;;;;;5194772;28;20024;-66
2022/11/01 03:46:17;;;;;;;2.67;2.50;;;;;;;;;;5196989;28;20021;-66
2022/11/01 03:48:47;;;;;;;2.17;2.15;;;;;;;;;;5197101;28;20025;-66
2022/11/01 03:51:17;;;;;;;2.35;2.25;;;;;;;;;;5197670;28;20037;-66
2022/11/01 03:53:47;;;;;;;4.07;2.50;;;;;;;;;;5197230;28;20406;-65
2022/11/01 03:56:18;;;;;;;2.03;1.90;;;;;;;;;;5197321;28;20026;-64
2022/11/01 03:58:48;;;;;;;2.17;2.13;;;;;;;;;;5197485;28;20493;-64
2022/11/01 04:01:18;;;;;;;2.78;2.60;;;;;;;;;;5197032;28;20017;-65
2022/11/01 04:03:49;;;;;;;2.38;2.25;;;;;;;;;;5195148;28;20071;-65
2022/11/01 04:06:19;;;;;;;3.33;1.85;;;;;;;;;;5193037;28;20017;-66
2022/11/01 04:08:52;;;;;;;6.07;3.13;;;;;;;;;;5193866;28;20057;-66
2022/11/01 04:11:23;;;;;;;3.53;2.75;;;;;;;;;;5209317;28;20021;-64
2022/11/01 04:20:31;;;;;;;3.33;2.40;;;;;;;;;;5195225;28;20469;-65
2022/11/01 04:22:24;;;;;;;5.05;3.03;;;;;;;;;;5214789;28;20108;-65
2022/11/01 04:24:54;;;;;;;2.55;2.45;;;;;;;;;;5195191;28;20045;-66
2022/11/01 04:27:25;;;;;;;2.17;2.08;;;;;;;;;;5196818;28;20772;-66
2022/11/01 04:29:55;;;;;;;3.53;2.00;;;;;;;;;;5215045;28;20111;-66
2022/11/01 04:32:25;;;;;;;8.32;3.72;;;;;;;;;;5197311;28;20435;-66
2022/11/01 04:34:55;;;;;;;5.57;2.40;;;;;;;;;;5193988;28;20017;-66
2022/11/01 04:37:26;;;;;;;2.35;1.85;;;;;;;;;;5190342;28;20113;-66
2022/11/01 04:39:56;;;;;;;2.13;1.90;;;;;;;;;;5191601;28;20013;-65
2022/11/01 04:42:26;;;;;;;2.35;2.25;;;;;;;;;;5197095;28;20497;-65
2022/11/01 04:44:57;;;;;;;2.90;2.70;;;;;;;;;;5213534;28;20014;-64
2022/11/01 04:47:27;;;;;;;2.38;2.28;;;;;;;;;;5196579;28;20032;-64
2022/11/01 04:49:57;;;;;;;6.20;3.00;;;;;;;;;;5195265;28;20057;-66
2022/11/01 04:52:27;;;;;;;2.67;2.53;;;;;;;;;;5196033;28;20456;-65
2022/11/01 04:54:58;;;;;;;6.38;3.15;;;;;;;;;;5194217;28;20032;-66
2022/11/01 04:57:28;;;;;;;8.52;3.30;;;;;;;;;;5195099;28;20572;-66
2022/11/01 04:59:58;;;;;;;2.47;2.38;;;;;;;;;;5194180;28;20048;-66
2022/11/01 05:02:29;;;;;;;2.25;2.20;;;;;;;;;;5213359;28;20024;-65
2022/11/01 05:04:59;;;;;;;8.13;2.90;;;;;;;;;;5195597;28;20448;-65
2022/11/01 05:07:29;;;;;;;3.15;2.90;;;;;;;;;;5195958;28;20095;-66
2022/11/01 05:10:00;;;;;;;12.55;4.22;;;;;;;;;;5213161;28;20473;-64
2022/11/01 05:12:30;;;;;;;2.60;2.08;;;;;;;;;;5195608;28;20017;-64
2022/11/01 05:15:01;;;;;;;5.07;2.88;;;;;;;;;;5212129;28;20132;-65
2022/11/01 05:17:31;;;;;;;2.65;2.45;;;;;;;;;;5195194;28;20031;-64
2022/11/01 05:20:01;;;;;;;4.80;2.60;;;;;;;;;;5213076;28;20057;-66
2022/11/01 05:22:31;;;;;;;3.50;2.22;;;;;;;;;;5213477;28;20596;-64
2022/11/01 05:25:02;;;;;;;2.85;2.63;;;;;;;;;;5194561;28;20017;-64
2022/11/01 05:27:32;;;;;;;6.00;2.47;;;;;;;;;;5195330;28;20032;-64
2022/11/01 05:30:04;;;;;;;6.93;3.00;;;;;;;;;;5193919;28;20519;-64
2022/11/01 05:32:37;;;;;;;6.43;2.35;;;;;;;;;;5195419;28;20486;-64
2022/11/01 05:35:11;;;;;;;8.20;2.58;;;;;;;;;;5194469;28;20021;-63
2022/11/01 05:37:41;;;;;;;4.93;2.65;;;;;;;;;;5194777;28;20025;-64
2022/11/01 05:40:11;;;;;;;1.60;1.60;;;;;;;;;;5195264;28;20027;-64
2022/11/01 05:42:41;;;;;;;6.20;2.28;;;;;;;;;;5212167;28;20025;-64
2022/11/01 05:45:12;;;;;;;2.60;2.40;;;;;;;;;;5193733;28;20017;-62
2022/11/01 05:47:42;;;;;;;4.15;1.88;;;;;;;;;;5193848;28;20017;-63
2022/11/01 05:50:14;;;;;;;1.98;1.48;;;;;;;;;;5194598;28;20032;-63
2022/11/01 05:52:44;;;;;;;3.25;2.97;;;;;;;;;;5195056;28;20025;-64
2022/11/01 05:55:14;;;;;;;2.75;2.45;;;;;;;;;;5194142;28;20021;-61
2022/11/01 05:57:45;;;;;;;2.38;2.20;;;;;;;;;;5194365;28;20053;-62
2022/11/01 06:00:15;;;;;;;2.25;2.15;;;;;;;;;;5196464;28;20110;-63
2022/11/01 06:02:45;;;;;;;9.20;2.60;;;;;;;;;;5203289;28;20014;-64
2022/11/01 06:05:16;;;;;;;3.75;3.42;;;;;;;;;;5211189;28;20088;-64
2022/11/01 06:07:46;;;;;;;10.73;3.45;;;;;;;;;;5194313;28;20026;-64
2022/11/01 06:10:16;;;;;;;2.58;1.92;;;;;;;;;;5194314;28;20021;-64
2022/11/01 06:12:46;;;;;;;3.60;2.85;;;;;;;;;;5193120;28;20025;-64
2022/11/01 06:15:17;;;;;;;3.47;3.17;;;;;;;;;;5193726;28;20397;-64
2022/11/01 06:17:47;;;;;;;2.90;2.75;;;;;;;;;;5193626;28;20014;-64
2022/11/01 06:20:17;;;;;;;6.78;3.38;;;;;;;;;;5210319;28;20386;-64
2022/11/01 06:22:48;;;;;;;4.38;2.90;;;;;;;;;;5192883;28;20460;-65
2022/11/01 06:25:18;;;;;;;4.32;3.67;;;;;;;;;;5211008;28;20014;-63
2022/11/01 06:27:48;;;;;;;3.90;2.38;;;;;;;;;;5211607;28;20029;-64
2022/11/01 06:30:19;;;;;;;3.85;3.33;;;;;;;;;;5192740;28;20117;-63
2022/11/01 06:32:49;;;;;;;11.27;3.08;;;;;;;;;;5194493;28;20036;-68
2022/11/01 06:35:20;;;;;;;12.73;11.63;;;;;;;;;;5192930;28;20104;-64
2022/11/01 06:37:50;;;;;;;9.55;3.97;;;;;;;;;;5193536;28;20036;-64
2022/11/01 06:40:20;;;;;;;4.40;3.80;;;;;;;;;;5190027;28;20036;-65
2022/11/01 06:42:51;;;;;;;3.60;2.63;;;;;;;;;;5191891;28;20013;-65
2022/11/01 06:45:21;;;;;;;4.65;3.70;;;;;;;;;;5193352;28;20025;-65
2022/11/01 06:47:51;;;;;;;5.93;3.10;;;;;;;;;;5193625;28;20366;-64
2022/11/01 06:50:22;;;;;;;3.50;3.30;;;;;;;;;;5192992;28;20021;-63
2022/11/01 06:52:54;;;;;;;6.07;4.38;;;;;;;;;;5193333;28;20021;-65
2022/11/01 06:55:25;;;;;;;12.68;4.15;;;;;;;;;;5193087;28;20033;-64
2022/11/01 06:57:57;;;;;;;7.25;3.45;;;;;;;;;;5192228;28;20102;-65
2022/11/01 07:00:28;;;;;;;7.80;3.88;;;;;;;;;;5192557;28;20112;-65
2022/11/01 07:03:16;;;;;;;3.38;3.00;;;;;;;;;;5193778;28;20021;-63
2022/11/01 07:05:48;;;;;;;5.18;3.08;;;;;;;;;;5193703;28;20014;-64
2022/11/01 07:08:19;;;;;;;4.95;3.35;;;;;;;;;;5192792;28;20056;-62
2022/11/01 07:10:49;;;;;;;5.72;3.10;;;;;;;;;;5193411;28;20014;-63
2022/11/01 07:13:19;;;;;;;15.75;4.38;;;;;;;;;;5193258;28;20385;-63
2022/11/01 07:15:50;;;;;;;9.15;3.22;;;;;;;;;;5192142;28;20025;-63
2022/11/01 07:18:20;;;;;;;2.55;2.35;;;;;;;;;;5195377;28;20461;-64
2022/11/01 07:20:50;;;;;;;4.57;3.53;;;;;;;;;;5197010;28;20025;-64
2022/11/01 07:23:21;;;;;;;7.05;3.25;;;;;;;;;;5194435;28;20024;-63
2022/11/01 07:25:51;;;;;;;5.65;2.42;;;;;;;;;;5191472;28;20024;-63
2022/11/01 07:28:22;;;;;;;24.33;5.20;;;;;;;;;;5209068;28;20014;-63
2022/11/01 07:30:53;;;;;;;24.13;4.70;;;;;;;;;;5195444;28;20036;-63
2022/11/01 07:33:23;;;;;;;9.18;3.83;;;;;;;;;;5215919;28;20487;-63
2022/11/01 07:35:54;;;;;;;15.90;4.05;;;;;;;;;;5214800;28;20029;-62
2022/11/01 07:38:24;;;;;;;3.80;3.10;;;;;;;;;;5217151;28;20024;-62
2022/11/01 07:40:54;;;;;;;5.95;2.78;;;;;;;;;;5216831;28;20112;-65
2022/11/01 07:43:25;;;;;;;5.30;2.78;;;;;;;;;;5216574;28;20028;-63
2022/11/01 07:45:57;;;;;;;2.70;2.50;;;;;;;;;;5214638;28;20021;-63
2022/11/01 07:48:27;;;;;;;4.35;3.30;;;;;;;;;;5212075;28;20161;-63
2022/11/01 07:50:58;;;;;;;9.30;4.25;;;;;;;;;;5198498;23;20174;-67
2022/11/01 07:53:28;;;;;;;2.95;2.75;;;;;;;;;;5168643;28;20088;-66
2022/11/01 07:55:59;;;;;;;6.70;3.85;;;;;;;;;;5168990;28;20485;-66
2022/11/01 07:58:29;;;;;;;7.93;3.55;;;;;;;;;;5168984;28;20359;-67
2022/11/01 08:01:00;;;;;;;7.03;4.28;;;;;;;;;;5169549;28;20091;-67
2022/11/01 08:03:30;;;;;;;3.95;2.55;;;;;;;;;;5168656;28;20018;-66
2022/11/01 08:06:00;;;;;;;8.88;3.58;;;;;;;;;;5169486;28;20076;-66
2022/11/01 08:08:30;;;;;;;7.60;3.83;;;;;;;;;;5168488;28;20500;-67
2022/11/01 08:11:01;;;;;;;6.90;3.50;;;;;;;;;;5167294;28;20270;-66
2022/11/01 08:13:31;;;;;;;6.53;4.35;;;;;;;;;;5168870;28;20217;-66
2022/11/01 08:16:02;;;;;;;16.35;3.17;;;;;;;;;;5168629;28;20129;-66
2022/11/01 08:18:32;;;;;;;9.45;4.10;;;;;;;;;;5168599;28;20026;-67
2022/11/01 08:21:03;;;;;;;8.13;4.97;;;;;;;;;;5167159;28;20169;-67
2022/11/01 08:23:33;;;;;;;7.32;3.83;;;;;;;;;;5167243;28;20521;-68
2022/11/01 08:26:05;;;;;;;6.55;3.33;;;;;;;;;;5168972;28;20067;-66
2022/11/01 08:28:35;;;;;;;7.95;3.53;;;;;;;;;;5167170;28;20545;-68
2022/11/01 08:31:06;;;;;;;8.27;3.42;;;;;;;;;;5168657;28;20018;-66
2022/11/01 08:33:37;;;;;;;5.90;3.03;;;;;;;;;;5168443;28;20032;-66
2022/11/01 08:36:07;;;;;;;8.27;3.35;;;;;;;;;;5168845;28;20022;-66
2022/11/01 08:38:37;;;;;;;3.15;2.70;;;;;;;;;;5168352;28;20070;-66
2022/11/01 08:41:08;;;;;;;10.32;4.07;;;;;;;;;;5168596;28;20492;-68
2022/11/01 08:43:38;;;;;;;3.58;3.28;;;;;;;;;;5168391;28;20025;-66
2022/11/01 08:46:09;;;;;;;7.18;3.83;;;;;;;;;;5167880;28;20029;-67
2022/11/01 08:48:39;;;;;;;13.95;5.15;;;;;;;;;;5168788;28;20036;-66
2022/11/01 08:51:10;;;;;;;7.15;3.38;;;;;;;;;;5168011;28;20468;-66
2022/11/01 08:53:40;;;;;;;2.90;2.58;;;;;;;;;;5168129;28;20022;-66
2022/11/01 08:56:13;;;;;;;5.18;2.80;;;;;;;;;;5168876;28;20053;-66
2022/11/01 08:58:45;;;;;;;5.85;3.42;;;;;;;;;;5169128;28;20037;-66
2022/11/01 09:01:16;;;;;;;3.40;2.67;;;;;;;;;;5186469;28;20026;-66
2022/11/01 09:03:47;;;;;;;10.55;5.07;;;;;;;;;;5167959;28;20028;-67
2022/11/01 09:06:18;;;;;;;6.13;4.65;;;;;;;;;;5180099;28;20398;-66
2022/11/01 09:08:57;;;;;;;11.20;5.00;;;;;;;;;;5167513;28;20028;-66
2022/11/01 09:11:27;;;;;;;10.82;4.40;;;;;;;;;;5168082;28;20056;-67
2022/11/01 09:14:00;;;;;;;12.57;3.95;;;;;;;;;;5185265;28;20030;-65
2022/11/01 09:16:32;;;;;;;18.55;3.72;;;;;;;;;;5168515;28;20026;-66
2022/11/01 09:19:07;;;;;;;7.22;3.10;;;;;;;;;;5168273;28;20455;-66
2022/11/01 09:21:44;;;;;;;7.53;3.80;;;;;;;;;;5201151;28;20236;-66
2022/11/01 09:24:16;;;;;;;7.18;4.93;;;;;;;;;;5160673;28;20556;-65
2022/11/01 09:26:49;;;;;;;6.90;4.07;;;;;;;;;;5168075;28;20037;-65
2022/11/01 09:29:32;;;;;;;7.13;4.95;;;;;;;;;;5166481;28;20482;-65
2022/11/01 09:32:03;;;;;;;3.42;3.22;;;;;;;;;;5167910;28;20104;-65
2022/11/01 09:34:35;;;;;;;6.30;4.07;;;;;;;;;;5184489;28;20390;-66
2022/11/01 09:37:16;;;;;;;9.60;4.32;;;;;;;;;;5167212;28;20121;-66
2022/11/01 09:39:47;;;;;;;12.02;3.63;;;;;;;;;;5151801;28;20549;-66
2022/11/01 09:42:23;;;;;;;7.25;2.95;;;;;;;;;;5185060;28;20106;-66
2022/11/01 09:44:59;;;;;;;3.10;2.72;;;;;;;;;;5165195;28;20504;-66
2022/11/01 09:47:30;;;;;;;10.60;4.07;;;;;;;;;;5174846;28;20501;-66
2022/11/01 09:50:24;;;;;;;6.70;3.55;;;;;;;;;;5183455;28;20453;-65
2022/11/01 09:52:59;;;;;;;9.50;4.07;;;;;;;;;;5184969;28;20470;-67
2022/11/01 09:55:52;;;;;;;4.53;3.53;;;;;;;;;;5165428;28;20478;-68
2022/11/01 09:58:35;;;;;;;6.07;2.92;;;;;;;;;;5126996;28;20830;-66
2022/11/01 10:01:16;;;;;;;12.30;2.72;;;;;;;;;;5184783;28;20610;-66
2022/11/01 10:03:54;;;;;;;16.77;5.18;;;;;;;;;;5170760;28;20129;-66
2022/11/01 10:06:34;;;;;;;11.02;2.85;;;;;;;;;;5185025;28;20017;-66
2022/11/01 10:09:17;;;;;;;2.38;2.10;;;;;;;;;;5165058;28;20561;-66
2022/11/01 10:11:56;;;;;;;4.35;3.45;;;;;;;;;;5167152;28;20348;-65
2022/11/01 10:14:33;;;;;;;8.53;3.70;;;;;;;;;;5166375;28;20088;-66
2022/11/01 10:17:22;;;;;;;4.63;3.05;;;;;;;;;;5167011;28;20053;-66
2022/11/01 10:19:53;;;;;;;5.23;2.90;;;;;;;;;;5150764;28;20030;-67
2022/11/01 10:22:32;;;;;;;4.63;2.90;;;;;;;;;;5166927;28;20272;-66
2022/11/01 10:25:08;;;;;;;6.93;3.35;;;;;;;;;;5166066;28;20025;-67
2022/11/01 10:27:53;;;;;;;3.60;3.25;;;;;;;;;;5186340;28;20025;-68
2022/11/01 10:30:26;;;;;;;5.18;3.17;;;;;;;;;;5204391;28;20520;-66
2022/11/01 10:33:15;;;;;;;8.95;4.50;;;;;;;;;;5187475;28;20124;-65
2022/11/01 10:35:52;;;;;;;11.23;4.00;;;;;;;;;;5180790;28;20449;-67
2022/11/01 10:38:37;;;;;;;10.05;4.03;;;;;;;;;;5165609;28;20780;-66
2022/11/01 10:41:26;;;;;;;4.60;2.50;;;;;;;;;;5165963;28;20022;-65
2022/11/01 10:44:06;;;;;;;5.70;2.95;;;;;;;;;;5180387;28;20049;-66
2022/11/01 10:46:38;;;;;;;9.55;6.05;;;;;;;;;;5166791;28;20521;-67
2022/11/01 10:49:19;;;;;;;3.55;2.15;;;;;;;;;;5167059;28;20036;-66
2022/11/01 10:51:52;;;;;;;3.95;2.60;;;;;;;;;;5167303;28;20030;-65
2022/11/01 10:54:30;;;;;;;8.10;3.47;;;;;;;;;;5169783;28;20030;-66
2022/11/01 10:57:04;;;;;;;7.43;2.50;;;;;;;;;;5170844;28;20049;-66
2022/11/01 10:59:48;;;;;;;7.07;2.47;;;;;;;;;;5170528;28;21425;-66
2022/11/01 11:02:28;;;;;;;8.05;2.50;;;;;;;;;;5188254;28;20501;-65
2022/11/01 11:05:03;;;;;;;5.38;2.42;;;;;;;;;;5169834;28;20470;-64
2022/11/01 11:07:34;;;;;;;4.65;3.13;;;;;;;;;;5187686;28;20064;-65
2022/11/01 11:10:26;;;;;;;5.20;3.65;;;;;;;;;;5170097;28;20030;-65
2022/11/01 11:13:06;;;;;;;11.93;4.38;;;;;;;;;;5170579;28;20027;-65
2022/11/01 11:15:47;;;;;;;3.33;3.13;;;;;;;;;;5185624;28;20034;-66
2022/11/01 11:18:26;;;;;;;12.35;4.03;;;;;;;;;;5168211;28;20117;-65
2022/11/01 11:20:59;;;;;;;5.37;3.07;;;;;;;;;;5169869;28;20028;-66
2022/11/01 11:23:31;;;;;;;5.47;2.65;;;;;;;;;;5169778;28;20265;-65
2022/11/01 11:26:03;;;;;;;3.53;3.25;;;;;;;;;;5170173;28;20482;-64
2022/11/01 11:28:43;;;;;;;3.90;3.60;;;;;;;;;;5159852;28;20479;-65
2022/11/01 11:31:21;;;;;;;11.10;3.17;;;;;;;;;;5167322;28;20025;-65
2022/11/01 11:33:57;;;;;;;6.05;2.65;;;;;;;;;;5149539;28;20026;-67
2022/11/01 11:36:33;;;;;;;3.85;3.13;;;;;;;;;;5147860;28;20113;-65
2022/11/01 11:39:06;;;;;;;7.18;3.22;;;;;;;;;;5149778;28;20126;-65
2022/11/01 11:41:37;;;;;;;5.25;3.45;;;;;;;;;;5149908;28;20073;-65
2022/11/01 11:44:36;;;;;;;3.33;3.03;;;;;;;;;;5149731;28;20113;-65
2022/11/01 11:47:16;;;;;;;2.22;2.13;;;;;;;;;;5149228;28;20030;-65
2022/11/01 11:49:48;;;;;;;4.60;3.03;;;;;;;;;;5163221;28;20486;-65
2022/11/01 11:52:26;;;;;;;4.10;3.03;;;;;;;;;;5169675;28;20101;-65
2022/11/01 11:54:59;;;;;;;;;;;;;;;;;;5187278;28;20022;-65
2022/11/01 11:57:33;;;;;;;1.75;1.63;;;;;;;;;;5169879;28;19956;-68
2022/11/01 12:00:05;;;;;;;2.67;2.00;;;;;;;;;;5169595;28;20474;-65
2022/11/01 12:02:39;;;;;;;2.40;2.28;;;;;;;;;;5169229;28;20088;-64
2022/11/01 12:05:25;;;;;;;6.70;3.17;;;;;;;;;;5169218;28;20017;-65
2022/11/01 12:07:59;;;;;;;3.35;2.78;;;;;;;;;;5169258;28;20076;-65
2022/11/01 12:10:47;;;;;;;3.95;2.95;;;;;;;;;;5169227;28;20022;-65
2022/11/01 12:13:26;;;;;;;4.40;2.20;;;;;;;;;;5169121;28;20048;-65
2022/11/01 12:16:15;;;;;;;4.88;3.33;;;;;;;;;;5189235;28;20086;-65
2022/11/01 12:18:47;;;;;;;8.98;4.25;;;;;;;;;;5188650;28;20022;-65
2022/11/01 12:21:23;;;;;;;5.38;3.13;;;;;;;;;;5189512;28;20481;-65
2022/11/01 12:24:07;;;;;;;3.65;3.03;;;;;;;;;;5189006;28;20024;-65
2022/11/01 12:26:38;;;;;;;4.05;2.55;;;;;;;;;;5189133;28;20021;-65
2022/11/01 12:29:14;;;;;;;4.97;3.00;;;;;;;;;;5188864;28;20029;-65
2022/11/01 12:31:54;;;;;;;6.90;2.72;;;;;;;;;;5206872;28;20033;-65
2022/11/01 12:34:29;;;;;;;6.75;1.98;;;;;;;;;;5187408;28;20032;-65
2022/11/01 12:37:13;;;;;;;7.70;3.22;;;;;;;;;;5206941;28;20014;-67
2022/11/01 12:39:55;;;;;;;6.93;2.67;;;;;;;;;;5188933;28;20030;-65
2022/11/01 12:42:43;;;;;;;2.30;2.15;;;;;;;;;;5189194;28;20257;-65
2022/11/01 12:45:27;;;;;;;3.22;2.30;;;;;;;;;;5188660;28;20492;-65
2022/11/01 12:48:10;;;;;;;10.18;3.45;;;;;;;;;;5188752;28;20033;-66
2022/11/01 12:50:44;;;;;;;7.03;3.30;;;;;;;;;;5172051;28;20060;-67
2022/11/01 12:53:22;;;;;;;7.45;2.47;;;;;;;;;;5188594;28;20025;-68
2022/11/01 12:55:58;;;;;;;3.85;2.03;;;;;;;;;;5188299;28;20125;-64
2022/11/01 12:58:29;;;;;;;3.80;1.98;;;;;;;;;;5188991;28;20106;-66
2022/11/01 13:01:03;;;;;;;2.17;1.92;;;;;;;;;;5188260;28;20116;-67
2022/11/01 13:03:56;;;;;;;11.10;3.08;;;;;;;;;;5204676;28;20033;-66
2022/11/01 13:06:46;;;;;;;10.18;2.83;;;;;;;;;;5188241;28;20044;-65
2022/11/01 13:09:25;;;;;;;3.45;2.42;;;;;;;;;;5186978;28;20482;-65
2022/11/01 13:12:04;;;;;;;2.72;1.75;;;;;;;;;;5187290;28;20041;-67
2022/11/01 13:14:54;;;;;;;9.07;3.08;;;;;;;;;;5205141;28;20024;-67
2022/11/01 13:17:24;;;;;;;;;;;;;;;;;;5188593;28;20025;-66
2022/11/01 13:19:57;;;;;;;4.95;2.45;;;;;;;;;;5187979;28;19911;-67
2022/11/01 13:22:41;;;;;;;10.32;2.55;;;;;;;;;;5188198;28;20110;-67
2022/11/01 13:25:21;;;;;;;3.33;2.33;;;;;;;;;;5187693;28;20489;-67
2022/11/01 13:28:10;;;;;;;1.92;1.75;;;;;;;;;;5188488;28;20481;-67
2022/11/01 13:30:43;;;;;;;7.47;2.63;;;;;;;;;;5187893;28;20075;-67
2022/11/01 13:33:20;;;;;;;7.53;3.60;;;;;;;;;;5187738;28;20022;-66
2022/11/01 13:36:05;;;;;;;7.90;4.28;;;;;;;;;;5187983;28;20060;-66
2022/11/01 13:39:11;;;;;;;7.25;3.95;;;;;;;;;;5187886;28;20110;-67
2022/11/01 13:41:42;;;;;;;4.88;2.05;;;;;;;;;;5122202;28;20023;-69
2022/11/01 13:44:18;;;;;;;4.75;2.53;;;;;;;;;;5122010;29;20500;-66
2022/11/01 13:47:09;;;;;;;1.85;1.70;;;;;;;;;;5106451;29;20082;-65
2022/11/01 13:52:27;;;;;;;3.97;2.83;;;;;;;;;;5242888;28;20052;-65
2022/11/01 13:55:35;;;;;;;5.28;3.00;;;;;;;;;;5227623;28;20042;-64
2022/11/01 13:58:05;;;;;;;3.15;2.70;;;;;;;;;;5145010;28;20110;-63
2022/11/01 14:00:41;;;;;;;6.28;3.72;;;;;;;;;;5219344;28;20029;-62
2022/11/01 14:03:31;;;;;;;2.75;2.65;;;;;;;;;;5211561;28;20024;-64
2022/11/01 14:06:22;;;;;;;9.30;3.55;;;;;;;;;;5213609;28;20019;-64
2022/11/01 14:09:13;;;;;;;11.50;3.47;;;;;;;;;;5223117;28;20099;-65
2022/11/01 14:11:45;;;;;;;5.88;3.08;;;;;;;;;;5187016;28;20480;-65
2022/11/01 14:14:30;;;;;;;4.88;2.70;;;;;;;;;;5227414;28;20028;-65
2022/11/01 14:17:19;;;;;;;5.20;2.38;;;;;;;;;;5227570;28;20044;-64
2022/11/01 14:19:56;;;;;;;2.15;1.98;;;;;;;;;;5213089;28;20113;-64
2022/11/01 14:22:31;;;;;;;2.83;2.47;;;;;;;;;;5223180;28;20120;-65
2022/11/01 14:25:21;;;;;;;2.70;2.50;;;;;;;;;;5225130;28;20461;-64
2022/11/01 14:28:10;;;;;;;3.78;3.17;;;;;;;;;;5205921;28;20025;-64
2022/11/01 14:30:43;;;;;;;3.85;2.67;;;;;;;;;;5224677;28;20161;-64
2022/11/01 14:33:15;;;;;;;3.70;3.03;;;;;;;;;;5206634;28;20396;-64
2022/11/01 14:35:50;;;;;;;6.95;3.00;;;;;;;;;;5206401;28;20395;-64
2022/11/01 14:38:25;;;;;;;3.80;2.72;;;;;;;;;;5206921;28;20070;-64
2022/11/01 14:40:57;;;;;;;2.60;1.85;;;;;;;;;;5206397;28;20051;-64
2022/11/01 14:43:41;;;;;;;6.03;3.92;;;;;;;;;;5206101;28;20020;-64
2022/11/01 14:46:15;;;;;;;7.55;3.22;;;;;;;;;;5207077;28;20024;-64
2022/11/01 14:48:45;;;;;;;9.63;3.63;;;;;;;;;;5206790;28;20430;-66
2022/11/01 14:51:21;;;;;;;7.90;3.20;;;;;;;;;;5206987;28;20032;-65
2022/11/01 14:54:15;;;;;;;7.53;3.22;;;;;;;;;;5206477;28;20025;-64
2022/11/01 14:56:49;;;;;;;4.90;3.47;;;;;;;;;;5206407;28;20404;-63
2022/11/01 14:59:19;;;;;;;2.67;1.67;;;;;;;;;;5206830;28;20495;-64
2022/11/01 15:01:52;;;;;;;8.45;3.45;;;;;;;;;;5206778;28;20017;-64
2022/11/01 15:04:30;;;;;;;11.05;3.83;;;;;;;;;;5206487;28;20021;-62
2022/11/01 15:07:00;;;;;;;3.22;2.75;;;;;;;;;;5207119;28;20021;-63
2022/11/01 15:09:31;;;;;;;7.88;3.88;;;;;;;;;;5206367;28;20028;-63
2022/11/01 15:12:09;;;;;;;2.78;2.53;;;;;;;;;;5207058;28;20027;-64
2022/11/01 15:14:41;;;;;;;2.15;1.95;;;;;;;;;;5206264;28;20029;-64
2022/11/01 15:17:32;;;;;;;3.25;2.60;;;;;;;;;;5206743;28;20025;-63
2022/11/01 15:20:11;;;;;;;6.45;2.75;;;;;;;;;;5209645;28;20091;-63
2022/11/01 15:22:42;;;;;;;3.17;2.83;;;;;;;;;;5203703;28;20019;-62
2022/11/01 15:25:28;;;;;;;6.03;2.67;;;;;;;;;;5205500;28;20456;-62
2022/11/01 15:27:58;;;;;;;11.88;3.47;;;;;;;;;;5226600;28;20132;-64
2022/11/01 15:30:30;;;;;;;9.18;3.90;;;;;;;;;;5208668;28;20449;-65
2022/11/01 15:33:24;;;;;;;10.38;2.67;;;;;;;;;;5226898;28;20021;-65
2022/11/01 15:35:59;;;;;;;2.20;2.10;;;;;;;;;;5209621;28;20017;-64
2022/11/01 15:38:32;;;;;;;3.72;3.30;;;;;;;;;;5210521;28;20017;-65
2022/11/01 15:41:25;;;;;;;14.13;5.10;;;;;;;;;;5212714;28;20017;-62